createdAt,value
2023-12-30T00:01:13.304Z,9.23
2023-12-30T00:04:05.406Z,8.99
2023-12-30T00:06:57.351Z,9.03
2023-12-30T00:09:49.139Z,8.99
2023-12-30T00:12:40.939Z,8.97
2023-12-30T00:15:32.910Z,9.02
2023-12-30T00:18:24.799Z,9.20
2023-12-30T00:21:23.306Z,9.13
2023-12-30T00:24:15.073Z,9.08
2023-12-30T00:27:06.802Z,8.89
2023-12-30T00:29:58.608Z,8.84
2023-12-30T00:32:50.418Z,8.95
2023-12-30T00:35:42.250Z,8.97
2023-12-30T00:38:34.044Z,9.07
2023-12-30T00:41:26.816Z,9.03
2023-12-30T00:44:18.696Z,9.02
2023-12-30T00:47:12.516Z,9.07
2023-12-30T00:50:04.742Z,9.02
2023-12-30T00:52:56.799Z,9.00
2023-12-30T00:55:48.544Z,8.96
2023-12-30T00:58:40.319Z,8.79
2023-12-30T01:01:34.110Z,8.73
2023-12-30T01:04:26.030Z,8.84
2023-12-30T01:07:17.905Z,8.75
2023-12-30T01:10:09.879Z,8.67
2023-12-30T01:13:02.310Z,8.88
2023-12-30T01:15:54.245Z,9.08
2023-12-30T01:18:46.133Z,9.10
2023-12-30T01:21:38.084Z,9.39
2023-12-30T01:24:29.837Z,9.47
2023-12-30T01:27:21.593Z,9.56
2023-12-30T01:30:13.617Z,9.49
2023-12-30T01:33:06.624Z,9.51
2023-12-30T01:35:58.806Z,9.54
2023-12-30T01:38:50.550Z,9.59
2023-12-30T01:41:42.670Z,9.61
2023-12-30T01:44:34.465Z,9.56
2023-12-30T01:47:26.516Z,9.60
2023-12-30T01:50:18.871Z,9.80
2023-12-30T01:53:11.823Z,10.02
2023-12-30T01:56:04.487Z,10.06
2023-12-30T01:58:56.592Z,10.04
2023-12-30T02:01:48.415Z,9.98
2023-12-30T02:04:40.462Z,10.00
2023-12-30T02:07:32.523Z,9.91
2023-12-30T02:10:24.451Z,9.72
2023-12-30T02:13:16.464Z,9.59
2023-12-30T02:16:08.485Z,9.45
2023-12-30T02:19:00.612Z,9.49
2023-12-30T02:21:53.202Z,9.13
2023-12-30T02:24:44.985Z,8.42
2023-12-30T02:27:36.962Z,8.33
2023-12-30T02:30:29.654Z,8.16
2023-12-30T02:33:21.485Z,8.53
2023-12-30T02:36:13.306Z,8.80
2023-12-30T02:39:05.060Z,8.63
2023-12-30T02:41:56.817Z,8.82
2023-12-30T02:44:48.726Z,8.91
2023-12-30T02:47:40.524Z,8.58
2023-12-30T02:50:32.366Z,8.57
2023-12-30T02:53:24.146Z,8.83
2023-12-30T02:56:23.554Z,8.86
2023-12-30T02:59:15.504Z,8.95
2023-12-30T03:02:07.595Z,8.82
2023-12-30T03:04:59.554Z,8.76
2023-12-30T03:07:51.327Z,8.50
2023-12-30T03:10:43.136Z,8.66
2023-12-30T03:13:34.968Z,8.65
2023-12-30T03:16:27.502Z,8.85
2023-12-30T03:19:19.410Z,8.88
2023-12-30T03:22:11.265Z,8.91
2023-12-30T03:25:04.522Z,8.71
2023-12-30T03:27:56.347Z,8.37
2023-12-30T03:30:48.122Z,8.26
2023-12-30T03:33:40.024Z,8.18
2023-12-30T03:36:31.870Z,8.29
2023-12-30T03:39:24.380Z,8.18
2023-12-30T03:42:16.112Z,8.17
2023-12-30T03:45:08.584Z,8.22
2023-12-30T03:48:01.429Z,8.13
2023-12-30T03:50:53.388Z,8.20
2023-12-30T03:53:45.198Z,8.41
2023-12-30T03:56:41.229Z,8.32
2023-12-30T03:59:33.016Z,8.42
2023-12-30T04:02:24.851Z,8.57
2023-12-30T04:05:16.793Z,8.82
2023-12-30T04:08:08.569Z,9.02
2023-12-30T04:11:00.703Z,8.67
2023-12-30T04:13:52.614Z,8.53
2023-12-30T04:16:44.505Z,8.41
2023-12-30T04:19:37.124Z,8.31
2023-12-30T04:22:29.170Z,8.31
2023-12-30T04:25:21.056Z,8.17
2023-12-30T04:28:12.952Z,8.18
2023-12-30T04:31:05.064Z,8.31
2023-12-30T04:33:57.003Z,8.30
2023-12-30T04:36:48.979Z,8.28
2023-12-30T04:39:40.789Z,8.34
2023-12-30T04:42:32.539Z,8.46
2023-12-30T04:45:24.360Z,8.49
2023-12-30T04:48:16.233Z,8.25
2023-12-30T04:51:08.079Z,8.32
2023-12-30T04:54:00.293Z,8.39
2023-12-30T04:56:53.226Z,8.46
2023-12-30T04:59:45.218Z,8.40
2023-12-30T05:02:37.267Z,8.30
2023-12-30T05:05:30.272Z,8.25
2023-12-30T05:08:22.085Z,8.52
2023-12-30T05:11:13.833Z,8.85
2023-12-30T05:14:05.669Z,9.05
2023-12-30T05:16:57.442Z,8.99
2023-12-30T05:19:49.222Z,8.89
2023-12-30T05:22:41.289Z,8.92
2023-12-30T05:25:33.170Z,8.68
2023-12-30T05:28:25.039Z,8.78
2023-12-30T05:31:16.866Z,8.67
2023-12-30T05:34:08.835Z,8.57
2023-12-30T05:37:00.676Z,8.61
2023-12-30T05:39:52.461Z,8.87
2023-12-30T05:42:44.254Z,8.79
2023-12-30T05:45:36.274Z,8.56
2023-12-30T05:48:28.046Z,8.13
2023-12-30T05:51:21.785Z,8.05
2023-12-30T05:54:14.949Z,8.15
2023-12-30T05:57:06.762Z,8.19
2023-12-30T05:59:58.632Z,7.97
2023-12-30T06:02:50.411Z,7.82
2023-12-30T06:05:42.223Z,8.11
2023-12-30T06:08:34.000Z,7.92
2023-12-30T06:11:25.791Z,7.69
2023-12-30T06:14:17.614Z,7.54
2023-12-30T06:17:09.373Z,7.37
2023-12-30T06:20:01.808Z,7.35
2023-12-30T06:22:53.666Z,7.24
2023-12-30T06:25:45.493Z,7.53
2023-12-30T06:28:37.350Z,7.41
2023-12-30T06:31:29.218Z,7.60
2023-12-30T06:34:21.123Z,7.36
2023-12-30T06:37:13.029Z,7.21
2023-12-30T06:40:05.503Z,7.21
2023-12-30T06:42:57.323Z,7.11
2023-12-30T06:45:49.133Z,7.00
2023-12-30T06:48:41.092Z,6.84
2023-12-30T06:51:32.878Z,6.92
2023-12-30T06:54:24.620Z,6.86
2023-12-30T06:57:16.366Z,6.83
2023-12-30T07:00:08.918Z,6.93
2023-12-30T07:03:00.766Z,6.93
2023-12-30T07:05:52.547Z,6.88
2023-12-30T07:08:44.497Z,6.82
2023-12-30T07:11:36.363Z,6.82
2023-12-30T07:14:28.070Z,6.80
2023-12-30T07:17:19.817Z,6.88
2023-12-30T07:20:11.768Z,6.87
2023-12-30T07:23:04.137Z,6.86
2023-12-30T07:25:56.064Z,6.85
2023-12-30T07:28:47.860Z,6.83
2023-12-30T07:31:40.704Z,6.66
2023-12-30T07:34:32.538Z,6.57
2023-12-30T07:37:24.348Z,6.52
2023-12-30T07:40:17.047Z,6.59
2023-12-30T07:43:08.884Z,6.70
2023-12-30T07:46:00.948Z,6.88
2023-12-30T07:48:52.830Z,7.06
2023-12-30T07:51:44.854Z,7.20
2023-12-30T07:54:36.711Z,7.36
2023-12-30T07:57:28.522Z,7.86
2023-12-30T08:00:20.397Z,8.05
2023-12-30T08:03:12.245Z,8.10
2023-12-30T08:06:04.357Z,8.28
2023-12-30T08:08:56.155Z,8.05
2023-12-30T08:11:58.188Z,8.12
2023-12-30T08:14:53.845Z,8.01
2023-12-30T08:17:45.855Z,8.22
2023-12-30T08:20:37.728Z,8.30
2023-12-30T08:23:29.542Z,8.63
2023-12-30T08:26:21.818Z,8.97
2023-12-30T08:29:15.528Z,9.28
2023-12-30T08:32:07.418Z,9.40
2023-12-30T08:34:59.287Z,9.50
2023-12-30T08:37:51.132Z,9.56
2023-12-30T08:40:43.678Z,9.76
2023-12-30T08:43:35.571Z,9.50
2023-12-30T08:46:27.496Z,9.18
2023-12-30T08:49:19.459Z,8.89
2023-12-30T08:52:11.323Z,8.52
2023-12-30T08:55:03.235Z,8.81
2023-12-30T08:57:55.080Z,8.95
2023-12-30T09:00:46.988Z,9.40
2023-12-30T09:03:39.332Z,9.61
2023-12-30T09:06:31.279Z,9.98
2023-12-30T09:09:23.086Z,10.14
2023-12-30T09:12:14.857Z,10.37
2023-12-30T09:15:06.961Z,10.61
2023-12-30T09:17:58.900Z,10.78
2023-12-30T09:20:50.771Z,10.91
2023-12-30T09:23:42.836Z,10.82
2023-12-30T09:26:34.743Z,11.16
2023-12-30T09:29:26.713Z,10.91
2023-12-30T09:32:18.662Z,11.30
2023-12-30T09:35:10.671Z,11.60
2023-12-30T09:38:02.679Z,11.67
2023-12-30T09:40:55.965Z,11.93
2023-12-30T09:43:49.104Z,12.03
2023-12-30T09:46:41.467Z,12.08
2023-12-30T09:49:36.172Z,12.32
2023-12-30T09:52:28.369Z,12.71
2023-12-30T09:55:20.241Z,12.92
2023-12-30T09:58:12.670Z,13.22
2023-12-30T10:01:04.739Z,13.13
2023-12-30T10:03:56.901Z,13.30
2023-12-30T10:06:50.719Z,13.29
2023-12-30T10:09:42.858Z,13.51
2023-12-30T10:12:34.632Z,13.55
2023-12-30T10:15:26.383Z,13.56
2023-12-30T10:18:18.288Z,13.37
2023-12-30T10:21:10.172Z,13.52
2023-12-30T10:24:02.459Z,13.37
2023-12-30T10:26:54.247Z,13.62
2023-12-30T10:29:59.499Z,13.40
2023-12-30T10:32:52.202Z,13.73
2023-12-30T10:35:44.749Z,13.95
2023-12-30T10:38:37.208Z,13.94
2023-12-30T10:41:29.001Z,14.03
2023-12-30T10:44:20.903Z,14.22
2023-12-30T10:47:15.959Z,14.39
2023-12-30T10:50:09.946Z,14.00
2023-12-30T10:53:06.848Z,14.13
2023-12-30T10:56:01.145Z,14.34
2023-12-30T10:58:55.714Z,14.51
2023-12-30T11:01:48.438Z,14.73
2023-12-30T11:04:40.728Z,14.78
2023-12-30T11:07:33.335Z,14.94
2023-12-30T11:10:27.013Z,15.21
2023-12-30T11:13:21.677Z,15.08
2023-12-30T11:16:15.435Z,15.17
2023-12-30T11:19:07.532Z,15.18
2023-12-30T11:22:06.402Z,15.32
2023-12-30T11:24:58.222Z,15.43
2023-12-30T11:27:53.224Z,15.49
2023-12-30T11:30:47.273Z,15.56
2023-12-30T11:33:39.228Z,15.35
2023-12-30T11:36:31.979Z,15.32
2023-12-30T11:39:31.865Z,15.42
2023-12-30T11:42:33.825Z,15.38
2023-12-30T11:45:34.227Z,14.99
2023-12-30T11:48:26.071Z,14.66
2023-12-30T11:51:22.120Z,14.81
2023-12-30T11:54:13.897Z,14.87
2023-12-30T11:57:08.749Z,14.66
2023-12-30T12:00:00.595Z,14.77
2023-12-30T12:02:52.452Z,14.91
2023-12-30T12:05:44.250Z,14.92
2023-12-30T12:08:36.100Z,14.97
2023-12-30T12:11:27.901Z,14.97
2023-12-30T12:14:19.624Z,15.03
2023-12-30T12:17:11.505Z,15.19
2023-12-30T12:20:04.608Z,14.76
2023-12-30T12:22:56.819Z,14.74
2023-12-30T12:25:48.764Z,13.97
2023-12-30T12:28:40.871Z,14.01
2023-12-30T12:31:32.836Z,14.44
2023-12-30T12:34:26.343Z,13.81
2023-12-30T12:37:19.260Z,13.97
2023-12-30T12:40:11.662Z,14.12
2023-12-30T12:43:03.833Z,14.42
2023-12-30T12:45:55.963Z,14.78
2023-12-30T12:48:47.903Z,15.09
2023-12-30T12:51:39.739Z,15.26
2023-12-30T12:54:31.508Z,15.10
2023-12-30T12:57:23.251Z,15.28
2023-12-30T13:00:15.715Z,14.98
2023-12-30T13:03:08.061Z,14.78
2023-12-30T13:06:00.106Z,14.30
2023-12-30T13:08:51.865Z,14.61
2023-12-30T13:11:43.642Z,13.80
2023-12-30T13:14:35.477Z,14.13
2023-12-30T13:17:27.434Z,14.37
2023-12-30T13:20:19.344Z,14.38
2023-12-30T13:23:11.107Z,14.43
2023-12-30T13:26:04.761Z,14.40
2023-12-30T13:28:56.881Z,14.28
2023-12-30T13:31:48.760Z,14.07
2023-12-30T13:34:40.805Z,14.15
2023-12-30T13:37:32.642Z,14.28
2023-12-30T13:40:24.661Z,14.44
2023-12-30T13:43:16.443Z,14.53
2023-12-30T13:46:08.230Z,14.56
2023-12-30T13:49:00.237Z,14.64
2023-12-30T13:51:52.104Z,14.70
2023-12-30T13:54:43.854Z,14.69
2023-12-30T13:57:35.607Z,14.71
2023-12-30T14:00:27.422Z,14.78
2023-12-30T14:03:19.294Z,14.95
2023-12-30T14:06:11.306Z,15.08
2023-12-30T14:09:03.221Z,15.18
2023-12-30T14:11:56.629Z,15.19
2023-12-30T14:14:48.748Z,15.17
2023-12-30T14:17:41.005Z,15.44
2023-12-30T14:20:32.811Z,15.55
2023-12-30T14:23:24.557Z,15.26
2023-12-30T14:26:16.337Z,14.81
2023-12-30T14:29:08.085Z,14.61
2023-12-30T14:31:59.870Z,14.27
2023-12-30T14:34:51.712Z,14.01
2023-12-30T14:37:43.679Z,13.80
2023-12-30T14:40:35.636Z,13.61
2023-12-30T14:43:27.567Z,13.40
2023-12-30T14:46:19.535Z,13.19
2023-12-30T14:49:11.430Z,13.12
2023-12-30T14:52:03.422Z,13.03
2023-12-30T14:55:01.858Z,12.95
2023-12-30T14:57:54.502Z,12.55
2023-12-30T15:00:47.440Z,12.49
2023-12-30T15:03:39.428Z,12.37
2023-12-30T15:06:31.282Z,12.09
2023-12-30T15:09:23.326Z,11.67
2023-12-30T15:12:15.114Z,11.73
2023-12-30T15:15:07.008Z,11.64
2023-12-30T15:17:58.998Z,11.57
2023-12-30T15:20:51.015Z,11.52
2023-12-30T15:23:43.042Z,11.20
2023-12-30T15:26:34.812Z,11.21
2023-12-30T15:29:26.665Z,11.17
2023-12-30T15:32:18.846Z,11.08
2023-12-30T15:35:10.985Z,11.03
2023-12-30T15:38:02.972Z,10.87
2023-12-30T15:40:54.827Z,10.91
2023-12-30T15:43:46.762Z,10.66
2023-12-30T15:46:38.597Z,10.53
2023-12-30T15:49:30.459Z,10.48
2023-12-30T15:52:22.531Z,10.44
2023-12-30T15:55:14.465Z,10.36
2023-12-30T15:58:06.273Z,10.22
2023-12-30T16:00:58.085Z,10.07
2023-12-30T16:03:49.854Z,9.90
2023-12-30T16:06:41.752Z,9.40
2023-12-30T16:09:34.002Z,9.11
2023-12-30T16:12:25.763Z,8.98
2023-12-30T16:15:17.573Z,8.96
2023-12-30T16:18:09.656Z,8.85
2023-12-30T16:21:01.532Z,8.73
2023-12-30T16:23:53.299Z,8.62
2023-12-30T16:26:45.325Z,8.66
2023-12-30T16:29:37.055Z,8.56
2023-12-30T16:32:28.969Z,8.41
2023-12-30T16:35:20.911Z,8.38
2023-12-30T16:38:12.747Z,8.39
2023-12-30T16:41:04.682Z,8.32
2023-12-30T16:43:56.458Z,8.33
2023-12-30T16:46:48.408Z,8.07
2023-12-30T16:49:40.220Z,7.87
2023-12-30T16:52:32.278Z,7.57
2023-12-30T16:55:24.102Z,7.52
2023-12-30T16:58:15.906Z,7.53
2023-12-30T17:01:07.760Z,7.58
2023-12-30T17:03:59.667Z,7.80
2023-12-30T17:06:51.790Z,8.01
2023-12-30T17:09:44.038Z,7.78
2023-12-30T17:12:35.889Z,7.37
2023-12-30T17:15:27.631Z,7.12
2023-12-30T17:18:19.490Z,7.08
2023-12-30T17:21:11.240Z,7.10
2023-12-30T17:24:04.047Z,7.28
2023-12-30T17:26:55.858Z,7.44
2023-12-30T17:29:47.682Z,7.54
2023-12-30T17:32:39.493Z,7.58
2023-12-30T17:35:31.294Z,7.69
2023-12-30T17:38:23.122Z,7.86
2023-12-30T17:41:14.932Z,7.88
2023-12-30T17:44:06.794Z,7.79
2023-12-30T17:46:58.608Z,7.73
2023-12-30T17:49:50.458Z,7.57
2023-12-30T17:52:42.259Z,7.45
2023-12-30T17:55:34.088Z,7.20
2023-12-30T17:58:25.923Z,6.99
2023-12-30T18:01:19.139Z,6.91
2023-12-30T18:04:11.016Z,6.87
2023-12-30T18:07:03.281Z,6.92
2023-12-30T18:09:55.096Z,7.00
2023-12-30T18:12:46.878Z,7.14
2023-12-30T18:15:38.617Z,7.21
2023-12-30T18:18:30.528Z,7.32
2023-12-30T18:21:22.462Z,7.34
2023-12-30T18:24:14.213Z,7.46
2023-12-30T18:27:06.021Z,7.51
2023-12-30T18:29:57.787Z,7.68
2023-12-30T18:32:49.946Z,7.97
2023-12-30T18:35:41.855Z,8.19
2023-12-30T18:38:34.188Z,8.31
2023-12-30T18:41:25.974Z,8.55
2023-12-30T18:44:17.774Z,8.64
2023-12-30T18:47:09.530Z,8.48
2023-12-30T18:50:01.344Z,8.29
2023-12-30T18:52:53.191Z,8.16
2023-12-30T18:55:45.075Z,8.09
2023-12-30T18:58:36.875Z,7.91
2023-12-30T19:01:28.758Z,7.91
2023-12-30T19:04:20.620Z,7.89
2023-12-30T19:07:12.466Z,7.80
2023-12-30T19:10:04.634Z,7.67
2023-12-30T19:12:57.035Z,7.65
2023-12-30T19:15:48.938Z,7.54
2023-12-30T19:18:40.837Z,7.74
2023-12-30T19:21:32.649Z,7.78
2023-12-30T19:24:24.414Z,7.72
2023-12-30T19:27:17.183Z,7.73
2023-12-30T19:30:09.342Z,7.71
2023-12-30T19:33:01.409Z,7.66
2023-12-30T19:35:53.676Z,7.66
2023-12-30T19:38:45.826Z,7.61
2023-12-30T19:41:38.529Z,7.54
2023-12-30T19:44:30.512Z,7.40
2023-12-30T19:47:22.372Z,7.35
2023-12-30T19:50:14.103Z,7.44
2023-12-30T19:53:05.978Z,7.53
2023-12-30T19:55:58.294Z,7.65
2023-12-30T19:58:51.307Z,7.81
2023-12-30T20:01:43.153Z,7.82
2023-12-30T20:04:39.369Z,7.81
2023-12-30T20:07:31.195Z,7.78
2023-12-30T20:10:23.067Z,7.55
2023-12-30T20:13:15.189Z,7.51
2023-12-30T20:16:10.307Z,7.40
2023-12-30T20:19:02.167Z,7.09
2023-12-30T20:21:53.990Z,7.14
2023-12-30T20:24:45.784Z,7.25
2023-12-30T20:27:37.640Z,7.37
2023-12-30T20:30:29.380Z,7.64
2023-12-30T20:33:21.241Z,7.59
2023-12-30T20:36:22.234Z,7.58
2023-12-30T20:39:13.982Z,7.50
2023-12-30T20:42:06.086Z,7.29
2023-12-30T20:44:57.814Z,7.11
2023-12-30T20:47:49.736Z,7.14
2023-12-30T20:50:41.566Z,7.40
2023-12-30T20:53:33.313Z,7.19
2023-12-30T20:56:25.102Z,6.99
2023-12-30T20:59:18.585Z,6.94
2023-12-30T21:02:10.398Z,7.18
2023-12-30T21:05:02.178Z,7.09
2023-12-30T21:07:53.989Z,7.17
2023-12-30T21:10:45.937Z,7.10
2023-12-30T21:13:37.730Z,7.12
2023-12-30T21:16:30.094Z,7.14
2023-12-30T21:19:21.875Z,7.22
2023-12-30T21:22:13.677Z,7.15
2023-12-30T21:25:15.471Z,7.38
2023-12-30T21:28:11.230Z,7.19
2023-12-30T21:31:05.015Z,7.27
2023-12-30T21:33:56.938Z,7.29
2023-12-30T21:36:48.793Z,7.28
2023-12-30T21:39:40.797Z,7.20
2023-12-30T21:42:32.587Z,7.52
2023-12-30T21:45:24.407Z,7.76
2023-12-30T21:48:16.264Z,7.69
2023-12-30T21:51:08.889Z,7.53
2023-12-30T21:54:00.737Z,7.47
2023-12-30T21:56:52.527Z,7.62
2023-12-30T21:59:44.251Z,7.52
2023-12-30T22:02:36.054Z,7.54
2023-12-30T22:05:28.700Z,7.54
2023-12-30T22:08:20.518Z,7.61
2023-12-30T22:11:12.254Z,7.57
2023-12-30T22:14:04.019Z,7.67
2023-12-30T22:16:55.762Z,7.72
2023-12-30T22:19:47.631Z,7.46
2023-12-30T22:22:39.541Z,7.54
2023-12-30T22:25:31.336Z,7.39
2023-12-30T22:28:23.160Z,7.38
2023-12-30T22:31:15.001Z,7.37
2023-12-30T22:34:06.872Z,7.36
2023-12-30T22:36:58.693Z,7.59
2023-12-30T22:39:50.529Z,7.60
2023-12-30T22:42:42.523Z,7.75
2023-12-30T22:45:34.342Z,7.71
2023-12-30T22:48:26.207Z,7.68
2023-12-30T22:51:17.969Z,7.61
2023-12-30T22:54:09.757Z,7.43
2023-12-30T22:57:01.502Z,7.26
2023-12-30T22:59:53.246Z,7.37
2023-12-30T23:02:44.977Z,7.38
2023-12-30T23:05:37.245Z,7.61
2023-12-30T23:08:28.999Z,7.45
2023-12-30T23:11:20.722Z,7.53
2023-12-30T23:14:12.466Z,7.43
2023-12-30T23:17:04.611Z,7.35
2023-12-30T23:19:56.378Z,7.38
2023-12-30T23:22:48.646Z,7.38
2023-12-30T23:25:40.495Z,7.58
2023-12-30T23:28:32.309Z,7.69
2023-12-30T23:31:24.345Z,7.61
2023-12-30T23:34:16.138Z,7.46
2023-12-30T23:37:08.119Z,7.24
2023-12-30T23:39:59.945Z,7.07
2023-12-30T23:42:51.756Z,7.05
2023-12-30T23:45:43.541Z,7.07
2023-12-30T23:48:35.329Z,6.95
2023-12-30T23:51:27.120Z,7.12
2023-12-30T23:54:18.890Z,7.13
2023-12-30T23:57:10.739Z,7.06
